Flight Track Log - Related Links

Times and Time Zones

All times are in EDT time to prevent confusion due to time zone crossing. See the QXE2450 flight status page for this flight to view local times or setup timezone preferences in your user account.


Time Position Orientation Groundspeed Altitude Reporting Facility
EDT Latitude Longitude Course Direction KTS MPH feet Rate Location/Type
Sat 12:32:01 PM 45.6000 -122.5953 North 156 180 1,000  Level Seattle Center
Sat 12:32:51 PM 45.6300 -122.5942 North 185 213 2,200 2,378 Climbing Seattle Center
Sat 12:33:52 PM 45.6964 -122.5900 North 197 227 5,400 2,803 Climbing Seattle Center
Sat 12:34:53 PM 45.7539 -122.5906 360° North 205 236 7,900 2,231 Climbing Seattle Center
Sat 12:35:53 PM 45.8164 -122.5778 North 225 259 9,900 2,529 Climbing Seattle Center
Sat 12:36:54 PM 45.8761 -122.5683 North 217 250 13,000 2,164 Climbing Seattle Center
Sat 12:37:55 PM 45.9325 -122.5611 North 205 236 14,300 1,377 Climbing Seattle Center
Sat 12:38:56 PM 45.9969 -122.5533 North 225 259 15,800 1,475 Climbing Seattle Center
Sat 12:39:57 PM 46.0600 -122.5419 North 229 264 17,300 1,377 Climbing Seattle Center
Sat 12:40:58 PM 46.1250 -122.5297 North 233 268 18,600 1,377 Climbing Seattle Center
Sat 12:41:59 PM 46.1892 -122.5203 North 234 269 20,100 1,574 Climbing Seattle Center
Sat 12:43:00 PM 46.2589 -122.5097 North 229 264 21,800 942 Climbing Seattle Center
Sat 12:44:00 PM 46.3231 -122.4997 North 232 267 22,000 99 Climbing Seattle Center
Sat 12:45:01 PM 46.3969 -122.4867 North 262 302 22,000  Level Seattle Center
Sat 12:46:02 PM 46.4747 -122.4744 North 279 321 22,000  Level Seattle Center
Sat 12:47:03 PM 46.5528 -122.4611 North 285 328 22,000  Level Seattle Center
Sat 12:48:04 PM 46.6314 -122.4478 North 286 329 22,000  Level Seattle Center
Sat 12:49:05 PM 46.7103 -122.4364 North 288 331 22,000  Level Seattle Center
Sat 12:50:06 PM 46.8042 -122.4186 North 287 330 22,000  Level Seattle Center
Sat 12:51:06 PM 46.8831 -122.4064 North 288 331 22,000  Level Seattle Center
Sat 12:52:07 PM 46.9628 -122.3928 North 290 334 22,000  Level Seattle Center
Sat 12:53:08 PM 47.0406 -122.3753 North 288 331 22,000  Level Seattle Center
Sat 12:54:09 PM 47.1206 -122.3622 North 291 335 22,000  Level Seattle Center
Sat 12:55:10 PM 47.1992 -122.3497 North 289 333 22,000  Level Seattle Center
Sat 12:56:11 PM 47.2794 -122.3364 North 291 335 22,000  Level Seattle Center
Sat 12:57:12 PM 47.3614 -122.3231 North 298 343 22,000  Level Seattle Center
Sat 12:58:13 PM 47.4578 -122.3061 North 295 339 22,000  Level Seattle Center
Sat 12:59:13 PM 47.5372 -122.3014 North 293 337 22,000  Level Seattle Center
Sat 01:00:14 PM 47.6186 -122.2975 North 297 342 22,000  Level Seattle Center
Sat 01:01:15 PM 47.6981 -122.2914 North 298 343 22,000  Level Seattle Center
Sat 01:02:16 PM 47.7783 -122.2861 North 296 341 22,000  Level Seattle Center
Sat 01:03:17 PM 47.8589 -122.2819 North 295 339 22,000  Level Seattle Center
Sat 01:04:18 PM 47.9558 -122.2853 359° North 296 341 22,000  Level Seattle Center
Sat 01:05:19 PM 48.0358 -122.3103 348° North 297 342 22,000  Level Seattle Center
Sat 01:06:19 PM 48.1139 -122.3347 348° North 292 336 22,000  Level Seattle Center
Sat 01:07:20 PM 48.1931 -122.3561 350° North 291 335 22,000 -295 Level Seattle Center
Sat 01:08:21 PM 48.2739 -122.3786 350° North 296 341 21,400 -590 Descending Seattle Center
Sat 01:10:00 PM 48.3855 -122.4083 350° North  Level FlightAware Approximate

Login

Don't have an account? Register now (free) for customized features, flight alerts, and more!